Time;durP1;ratioP1;P1;durP2;ratioP2;P2;SDS_P1;SDS_P2;PMS_P1;PMS_P2;Temp;Humidity;BMP_temperature;BMP_pressure;BME280_temperature;BME280_humidity;BME280_pressure;Samples;Min_cycle;Max_cycle;Signal;HPM_P1;HPM_P2
2022/09/27 00:00:39;;;;;;;2.63;0.87;;;13.10;99.90;;;;;;5052696;28;20213;-64
2022/09/27 00:03:06;;;;;;;1.63;0.70;;;13.10;99.90;;;;;;5053215;28;20573;-64
2022/09/27 00:05:33;;;;;;;1.20;0.60;;;13.10;99.90;;;;;;5053125;28;20248;-63
2022/09/27 00:08:00;;;;;;;0.60;0.47;;;13.10;99.90;;;;;;5052950;28;20209;-63
2022/09/27 00:10:27;;;;;;;1.17;0.60;;;13.10;99.90;;;;;;5052673;28;20271;-62
2022/09/27 00:12:54;;;;;;;0.73;0.60;;;13.00;99.90;;;;;;5053285;28;20212;-63
2022/09/27 00:15:21;;;;;;;0.60;0.37;;;13.00;99.90;;;;;;5053057;28;20210;-64
2022/09/27 00:17:50;;;;;;;1.60;0.60;;;13.00;99.90;;;;;;5052768;28;20210;-64
2022/09/27 00:20:19;;;;;;;1.20;0.60;;;13.00;99.90;;;;;;5052400;28;20217;-64
2022/09/27 00:22:45;;;;;;;1.67;0.50;;;13.00;99.90;;;;;;5053129;28;20302;-64
2022/09/27 00:25:12;;;;;;;1.37;0.63;;;13.00;99.90;;;;;;5052725;28;20212;-64
2022/09/27 00:27:39;;;;;;;3.17;0.70;;;13.10;99.90;;;;;;5052847;28;20216;-63
2022/09/27 00:30:06;;;;;;;1.03;0.40;;;13.10;99.90;;;;;;5051972;28;20233;-64
2022/09/27 00:32:33;;;;;;;1.27;0.40;;;13.00;99.90;;;;;;5052871;28;20205;-64
2022/09/27 00:35:01;;;;;;;1.53;0.57;;;13.00;99.90;;;;;;5052784;28;20209;-64
2022/09/27 00:37:28;;;;;;;0.80;0.50;;;13.00;99.90;;;;;;5052702;28;20202;-63
2022/09/27 00:39:54;;;;;;;0.80;0.63;;;13.00;99.90;;;;;;5052085;28;20228;-64
2022/09/27 00:42:21;;;;;;;2.00;0.60;;;13.00;99.90;;;;;;5052562;28;20205;-63
2022/09/27 00:45:11;;;;;;;0.70;0.57;;;13.00;99.90;;;;;;5052466;28;20206;-64
2022/09/27 00:47:46;;;;;;;0.87;0.60;;;13.00;99.90;;;;;;5052662;28;20213;-64
2022/09/27 00:50:22;;;;;;;0.60;0.40;;;13.00;99.90;;;;;;5051705;28;20235;-64
2022/09/27 00:52:57;;;;;;;0.50;0.50;;;13.00;99.90;;;;;;5052842;28;20201;-64
2022/09/27 00:55:28;;;;;;;0.70;0.60;;;13.00;99.90;;;;;;5052506;28;20205;-64
2022/09/27 00:57:56;;;;;;;0.40;0.40;;;13.00;99.90;;;;;;5052611;28;20210;-64
2022/09/27 01:00:23;;;;;;;3.33;0.73;;;13.00;99.90;;;;;;5051575;28;20222;-64
2022/09/27 01:02:53;;;;;;;2.10;0.73;;;13.10;99.90;;;;;;5051991;28;20210;-65
2022/09/27 01:05:25;;;;;;;2.50;0.60;;;13.10;99.90;;;;;;5052276;28;20662;-65
2022/09/27 01:07:55;;;;;;;2.10;0.60;;;13.10;99.90;;;;;;5052296;28;20214;-65
2022/09/27 01:10:24;;;;;;;1.87;0.50;;;13.10;99.90;;;;;;5050183;22;20237;-57
2022/09/27 01:13:00;;;;;;;1.07;0.60;;;13.20;99.90;;;;;;5032201;28;20252;-57
2022/09/27 01:15:34;;;;;;;1.37;0.40;;;13.20;99.90;;;;;;5032171;28;20213;-56
2022/09/27 01:18:23;;;;;;;2.10;1.10;;;13.20;99.90;;;;;;5031941;28;20247;-57
2022/09/27 01:21:27;;;;;;;1.07;0.50;;;13.20;99.90;;;;;;5011855;28;20202;-57
2022/09/27 01:24:07;;;;;;;0.87;0.40;;;13.20;99.90;;;;;;5012257;28;20280;-57
2022/09/27 01:27:02;;;;;;;2.10;0.40;;;13.20;99.90;;;;;;5012512;28;20206;-56
2022/09/27 01:29:36;;;;;;;0.67;0.50;;;13.20;99.90;;;;;;5011800;28;20226;-58
2022/09/27 01:32:08;;;;;;;0.63;0.50;;;13.20;99.90;;;;;;5012142;28;20210;-56
2022/09/27 01:34:43;;;;;;;3.20;0.60;;;13.20;99.90;;;;;;5012006;28;20214;-57
2022/09/27 01:37:18;;;;;;;0.50;0.50;;;13.10;99.90;;;;;;5015273;28;20213;-57
2022/09/27 01:39:51;;;;;;;0.57;0.50;;;13.10;99.90;;;;;;5015579;28;20598;-57
2022/09/27 01:42:24;;;;;;;0.73;0.50;;;13.10;99.90;;;;;;5016126;28;20206;-57
2022/09/27 01:44:58;;;;;;;0.57;0.50;;;13.10;99.90;;;;;;5016079;28;20210;-59
2022/09/27 01:47:33;;;;;;;0.73;0.53;;;13.10;99.90;;;;;;5016228;28;20265;-59
2022/09/27 01:50:03;;;;;;;0.60;0.43;;;13.10;99.90;;;;;;5015272;28;20226;-57
2022/09/27 01:52:35;;;;;;;1.13;0.47;;;13.10;99.90;;;;;;5016042;28;20215;-57
2022/09/27 01:55:05;;;;;;;1.27;0.60;;;13.10;99.90;;;;;;5015968;28;20268;-57
2022/09/27 01:57:36;;;;;;;0.73;0.53;;;13.10;99.90;;;;;;5015811;28;20206;-56
2022/09/27 02:00:07;;;;;;;1.07;0.50;;;13.10;99.90;;;;;;5015245;28;20570;-57
2022/09/27 02:02:39;;;;;;;1.03;0.43;;;13.10;99.90;;;;;;5016074;28;20218;-56
2022/09/27 02:05:10;;;;;;;0.97;0.50;;;13.10;99.90;;;;;;5015844;28;20207;-58
2022/09/27 02:07:43;;;;;;;3.10;0.63;;;13.10;99.90;;;;;;5015659;28;20294;-57
2022/09/27 02:10:15;;;;;;;0.50;0.50;;;13.10;99.90;;;;;;5014663;28;20234;-56
2022/09/27 02:12:50;;;;;;;1.47;0.40;;;13.20;99.90;;;;;;5015954;28;20218;-57
2022/09/27 02:15:18;;;;;;;0.80;0.60;;;13.20;99.90;;;;;;5015721;28;20241;-57
2022/09/27 02:17:54;;;;;;;1.30;0.60;;;13.30;99.90;;;;;;5015796;28;20667;-57
2022/09/27 02:20:29;;;;;;;2.37;1.27;;;13.30;99.90;;;;;;5014674;28;20231;-57
2022/09/27 02:23:06;;;;;;;3.93;1.80;;;13.20;99.90;;;;;;5015741;28;20233;-57
2022/09/27 02:25:40;;;;;;;1.07;0.90;;;13.20;99.90;;;;;;5015520;28;20203;-57
2022/09/27 02:28:16;;;;;;;1.83;0.60;;;13.20;99.90;;;;;;5015388;28;20562;-57
2022/09/27 02:30:43;;;;;;;1.70;0.90;;;13.20;99.90;;;;;;5014735;28;20313;-57
2022/09/27 02:33:11;;;;;;;1.87;1.40;;;13.30;99.90;;;;;;5015502;28;20459;-56
2022/09/27 02:35:38;;;;;;;1.10;0.80;;;13.30;99.90;;;;;;5015314;28;20526;-59
2022/09/27 02:38:06;;;;;;;1.13;0.60;;;13.30;99.90;;;;;;5015379;28;20219;-56
2022/09/27 02:40:36;;;;;;;3.77;1.23;;;13.20;99.90;;;;;;5014531;28;20227;-56
2022/09/27 02:43:05;;;;;;;2.20;0.40;;;13.10;99.90;;;;;;5015051;28;20206;-57
2022/09/27 02:45:38;;;;;;;2.77;0.60;;;12.90;99.90;;;;;;5015183;28;20222;-56
2022/09/27 02:48:19;;;;;;;1.00;0.30;;;12.90;99.90;;;;;;5015104;28;20207;-59
2022/09/27 02:51:07;;;;;;;1.03;0.40;;;12.90;99.90;;;;;;5014474;28;20231;-57
2022/09/27 02:53:45;;;;;;;0.73;0.47;;;12.80;99.90;;;;;;5014803;28;20218;-56
2022/09/27 02:56:21;;;;;;;0.70;0.60;;;12.80;99.90;;;;;;5014969;28;20280;-57
2022/09/27 02:58:56;;;;;;;2.47;0.60;;;12.80;99.90;;;;;;5014813;28;20234;-57
2022/09/27 03:01:29;;;;;;;1.40;0.53;;;12.70;99.90;;;;;;5014678;28;20206;-59
2022/09/27 03:04:03;;;;;;;2.27;0.83;;;12.70;99.90;;;;;;5014589;28;20203;-57
2022/09/27 03:06:31;;;;;;;1.40;1.00;;;12.70;99.90;;;;;;5014882;28;20238;-57
2022/09/27 03:08:58;;;;;;;0.83;0.40;;;12.60;99.90;;;;;;5014283;28;20238;-58
2022/09/27 03:11:25;;;;;;;1.77;0.60;;;12.60;99.90;;;;;;5014726;28;20752;-56
2022/09/27 03:13:51;;;;;;;0.67;0.50;;;12.60;99.90;;;;;;5014943;28;20269;-56
2022/09/27 03:16:18;;;;;;;0.67;0.50;;;12.60;99.90;;;;;;5014435;28;20210;-56
2022/09/27 03:18:45;;;;;;;2.60;0.73;;;12.60;99.90;;;;;;5015474;28;20626;-58
2022/09/27 03:21:13;;;;;;;3.37;0.90;;;12.60;99.90;;;;;;5014817;28;20203;-57
2022/09/27 03:23:40;;;;;;;1.63;0.70;;;12.50;99.90;;;;;;5016124;28;20203;-56
2022/09/27 03:26:06;;;;;;;1.50;0.67;;;12.40;99.90;;;;;;5015327;28;20222;-57
2022/09/27 03:28:34;;;;;;;2.73;0.97;;;12.40;99.90;;;;;;5014123;28;20218;-57
2022/09/27 03:31:01;;;;;;;3.63;1.00;;;12.40;99.90;;;;;;5013956;28;20226;-56
2022/09/27 03:33:28;;;;;;;2.73;0.77;;;12.50;99.90;;;;;;5014437;28;20222;-58
2022/09/27 03:35:54;;;;;;;1.63;0.70;;;12.60;99.90;;;;;;5014209;28;20211;-57
2022/09/27 03:38:22;;;;;;;2.90;0.60;;;12.70;99.90;;;;;;5014013;28;20207;-56
2022/09/27 03:40:49;;;;;;;3.23;0.90;;;12.70;99.90;;;;;;5013421;28;20206;-57
2022/09/27 03:43:16;;;;;;;3.03;0.90;;;12.70;99.90;;;;;;5013781;28;20207;-56
2022/09/27 03:45:44;;;;;;;5.17;1.53;;;12.70;99.90;;;;;;5013584;28;20211;-57
2022/09/27 03:48:11;;;;;;;3.00;1.30;;;12.70;99.90;;;;;;5013805;28;20734;-56
2022/09/27 03:50:38;;;;;;;3.23;1.43;;;12.70;99.90;;;;;;5013197;28;20239;-57
2022/09/27 03:53:05;;;;;;;3.20;1.30;;;12.70;99.90;;;;;;5013701;28;20657;-57
2022/09/27 03:55:33;;;;;;;2.93;1.90;;;12.70;99.90;;;;;;5013502;28;20345;-56
2022/09/27 03:57:59;;;;;;;2.77;1.00;;;12.70;99.90;;;;;;5013293;28;20741;-57
2022/09/27 04:00:26;;;;;;;1.97;1.13;;;12.70;99.90;;;;;;5012264;28;20281;-58
2022/09/27 04:02:53;;;;;;;3.13;1.00;;;12.70;99.90;;;;;;5013554;28;20214;-56
2022/09/27 04:05:19;;;;;;;2.77;1.20;;;12.70;99.90;;;;;;5013538;28;20681;-55
2022/09/27 04:07:48;;;;;;;2.57;1.20;;;12.70;99.90;;;;;;5013556;28;20257;-56
2022/09/27 04:10:15;;;;;;;2.03;1.30;;;12.70;99.90;;;;;;5012449;28;20705;-57
2022/09/27 04:12:44;;;;;;;5.03;1.57;;;12.70;99.90;;;;;;5013419;28;20218;-56
2022/09/27 04:15:11;;;;;;;2.17;0.87;;;12.70;99.90;;;;;;5013185;28;20273;-57
2022/09/27 04:17:41;;;;;;;2.97;1.30;;;12.70;99.90;;;;;;5013234;28;20238;-55
2022/09/27 04:20:08;;;;;;;4.10;1.07;;;12.70;99.90;;;;;;5012588;28;20322;-58
2022/09/27 04:22:34;;;;;;;4.63;1.03;;;12.70;99.90;;;;;;5013462;28;20202;-58
2022/09/27 04:25:01;;;;;;;6.60;1.87;;;12.70;99.90;;;;;;5013141;28;20214;-57
2022/09/27 04:27:28;;;;;;;4.33;1.53;;;12.70;99.90;;;;;;5012810;28;20210;-56
2022/09/27 04:29:56;;;;;;;3.93;1.37;;;12.70;99.90;;;;;;5012521;28;20242;-56
2022/09/27 04:32:22;;;;;;;4.73;1.70;;;12.70;99.90;;;;;;5013016;28;20210;-56
2022/09/27 04:37:34;;;;;;;2.77;1.27;;;12.70;99.90;;;;;;5012959;28;20201;-57
2022/09/27 04:40:01;;;;;;;2.73;1.40;;;12.70;99.90;;;;;;5012101;28;20235;-56
2022/09/27 04:42:28;;;;;;;6.57;1.30;;;12.70;99.90;;;;;;5012934;28;20211;-57
2022/09/27 04:44:56;;;;;;;4.27;2.40;;;12.80;99.90;;;;;;5012725;28;20678;-56
2022/09/27 04:47:23;;;;;;;3.23;1.37;;;12.80;99.90;;;;;;5012458;28;20273;-56
2022/09/27 04:49:49;;;;;;;5.07;2.60;;;12.70;99.90;;;;;;5011999;28;20322;-57
2022/09/27 04:52:16;;;;;;;6.17;1.47;;;12.80;99.90;;;;;;5012740;28;20273;-57
2022/09/27 04:54:43;;;;;;;3.40;1.50;;;12.80;99.90;;;;;;5012680;28;20253;-56
2022/09/27 04:57:11;;;;;;;3.87;1.30;;;12.80;99.90;;;;;;5012684;28;20207;-58
2022/09/27 04:59:38;;;;;;;5.07;1.57;;;12.80;99.90;;;;;;5012110;28;20238;-55
2022/09/27 05:02:06;;;;;;;4.43;1.50;;;12.80;99.90;;;;;;5012655;28;20229;-56
2022/09/27 05:04:33;;;;;;;3.13;1.37;;;12.80;99.90;;;;;;5012484;28;20210;-56
2022/09/27 05:06:59;;;;;;;3.27;1.20;;;12.80;99.90;;;;;;5012241;28;20203;-56
2022/09/27 05:09:26;;;;;;;8.47;1.83;;;12.80;99.90;;;;;;5011655;28;20292;-58
2022/09/27 05:11:52;;;;;;;4.53;1.60;;;12.80;99.90;;;;;;5011507;28;20234;-57
2022/09/27 05:14:20;;;;;;;3.40;1.70;;;12.80;99.90;;;;;;5012376;28;20211;-57
2022/09/27 05:16:46;;;;;;;6.00;1.40;;;12.70;99.90;;;;;;5012206;28;20294;-58
2022/09/27 05:19:15;;;;;;;3.80;1.40;;;12.70;99.90;;;;;;5011637;28;20230;-57
2022/09/27 05:21:42;;;;;;;5.50;1.37;;;12.70;99.90;;;;;;5012216;28;20203;-57
2022/09/27 05:24:09;;;;;;;5.47;1.37;;;12.70;99.90;;;;;;5012394;28;20268;-57
2022/09/27 05:26:36;;;;;;;2.27;1.20;;;12.70;99.90;;;;;;5012173;28;20218;-58
2022/09/27 05:29:03;;;;;;;3.93;1.43;;;12.70;99.90;;;;;;5011965;28;20603;-58
2022/09/27 05:31:30;;;;;;;3.53;1.30;;;12.80;99.90;;;;;;5011261;28;20698;-57
2022/09/27 05:33:57;;;;;;;2.97;1.40;;;12.90;99.90;;;;;;5011977;28;20210;-58
2022/09/27 05:36:25;;;;;;;3.40;1.33;;;12.90;99.90;;;;;;5011887;28;20207;-57
2022/09/27 05:38:53;;;;;;;5.37;2.77;;;12.90;99.90;;;;;;5012048;28;20223;-57
2022/09/27 05:41:19;;;;;;;3.43;1.43;;;13.00;99.90;;;;;;5011482;28;20210;-56
2022/09/27 05:43:46;;;;;;;2.40;1.70;;;13.00;99.90;;;;;;5012031;28;20643;-57
2022/09/27 05:46:13;;;;;;;3.83;1.47;;;12.90;99.90;;;;;;5011963;28;20210;-58
2022/09/27 05:48:39;;;;;;;6.13;2.10;;;12.90;99.90;;;;;;5011418;28;20639;-56
2022/09/27 05:51:06;;;;;;;5.43;1.70;;;12.90;99.90;;;;;;5011210;28;20304;-56
2022/09/27 05:53:35;;;;;;;3.37;1.27;;;12.80;99.90;;;;;;5011856;28;20277;-57
2022/09/27 05:56:02;;;;;;;6.23;1.43;;;12.80;99.90;;;;;;5012127;28;20562;-56
2022/09/27 05:58:30;;;;;;;4.07;1.10;;;12.80;99.90;;;;;;5011851;28;20253;-57
2022/09/27 06:00:56;;;;;;;6.00;1.07;;;12.80;99.90;;;;;;5011270;28;20203;-56
2022/09/27 06:03:23;;;;;;;3.23;0.93;;;12.70;99.90;;;;;;5011699;28;20261;-58
2022/09/27 06:05:50;;;;;;;3.33;1.30;;;12.80;99.90;;;;;;5012035;28;20215;-56
2022/09/27 06:08:18;;;;;;;2.37;1.20;;;12.80;99.90;;;;;;5011801;28;20202;-57
2022/09/27 06:10:47;;;;;;;1.77;0.80;;;12.80;99.90;;;;;;5010844;28;20317;-56
2022/09/27 06:13:17;;;;;;;1.80;0.80;;;12.80;99.90;;;;;;5011649;28;20298;-58
2022/09/27 06:15:45;;;;;;;1.50;1.00;;;12.80;99.90;;;;;;5011649;28;20242;-58
2022/09/27 06:18:15;;;;;;;2.27;1.00;;;12.80;99.90;;;;;;5011804;28;20207;-56
2022/09/27 06:20:42;;;;;;;1.77;0.80;;;12.90;99.90;;;;;;5011531;28;20211;-56
2022/09/27 06:23:11;;;;;;;3.43;0.90;;;13.00;99.90;;;;;;5015023;28;20658;-56
2022/09/27 06:25:39;;;;;;;1.83;0.93;;;13.10;99.90;;;;;;5015294;28;20246;-58
2022/09/27 06:28:07;;;;;;;1.73;0.90;;;13.10;99.90;;;;;;5015596;28;20253;-57
2022/09/27 06:30:33;;;;;;;1.80;1.00;;;13.20;99.90;;;;;;5014248;28;20610;-56
2022/09/27 06:33:02;;;;;;;1.20;0.80;;;13.20;99.90;;;;;;5015126;28;20203;-56
2022/09/27 06:35:30;;;;;;;2.13;1.13;;;13.20;99.90;;;;;;5015161;28;20207;-57
2022/09/27 06:37:57;;;;;;;4.40;1.07;;;13.20;99.90;;;;;;5015052;28;20577;-56
2022/09/27 06:40:25;;;;;;;1.77;1.00;;;13.30;99.90;;;;;;5014264;28;20235;-55
2022/09/27 06:42:52;;;;;;;3.07;0.90;;;13.30;99.90;;;;;;5014724;28;20207;-56
2022/09/27 06:45:20;;;;;;;1.30;0.90;;;13.40;99.90;;;;;;5014901;28;20218;-56
2022/09/27 06:47:47;;;;;;;3.13;0.80;;;13.30;99.90;;;;;;5014828;28;20203;-55
2022/09/27 06:50:14;;;;;;;3.33;1.00;;;13.30;99.90;;;;;;5014097;28;20231;-55
2022/09/27 06:52:47;;;;;;;2.03;1.00;;;13.30;99.90;;;;;;5014445;28;20733;-56
2022/09/27 06:55:15;;;;;;;3.60;1.27;;;13.30;99.90;;;;;;5014552;28;20207;-55
2022/09/27 07:00:27;;;;;;;2.00;0.67;;;13.30;99.90;;;;;;5013881;28;20717;-55
2022/09/27 07:02:59;;;;;;;2.00;0.70;;;13.40;99.90;;;;;;5014465;28;20209;-56
2022/09/27 07:05:27;;;;;;;1.33;0.57;;;13.50;99.90;;;;;;5014461;28;20257;-55
2022/09/27 07:07:56;;;;;;;2.63;0.70;;;13.40;99.90;;;;;;5014336;28;20203;-55
2022/09/27 07:10:25;;;;;;;1.83;0.50;;;13.30;99.90;;;;;;5013911;28;20234;-55
2022/09/27 07:12:51;;;;;;;2.23;0.90;;;13.20;99.90;;;;;;5014352;28;20238;-56
2022/09/27 07:15:19;;;;;;;0.70;0.30;;;13.10;99.90;;;;;;5014306;28;20207;-55
2022/09/27 07:17:47;;;;;;;1.27;0.70;;;13.10;99.90;;;;;;5014197;28;20297;-56
2022/09/27 07:20:14;;;;;;;4.00;0.83;;;13.10;99.90;;;;;;5013274;28;20249;-55
2022/09/27 07:22:42;;;;;;;0.97;0.50;;;13.20;99.90;;;;;;5014214;28;20530;-56
2022/09/27 07:25:09;;;;;;;1.10;0.53;;;13.10;99.90;;;;;;5013862;28;20740;-55
2022/09/27 07:27:36;;;;;;;1.20;0.70;;;13.10;99.90;;;;;;5014210;28;20212;-55
2022/09/27 07:30:04;;;;;;;1.23;0.60;;;13.10;99.90;;;;;;5013379;28;20261;-55
2022/09/27 07:32:30;;;;;;;1.83;0.50;;;13.20;99.90;;;;;;5014501;28;20226;-55
2022/09/27 07:34:58;;;;;;;1.43;0.57;;;13.30;99.90;;;;;;5012960;28;20260;-56
2022/09/27 07:37:25;;;;;;;1.03;0.50;;;13.20;99.90;;;;;;5014018;28;20207;-55
2022/09/27 07:39:52;;;;;;;0.53;0.40;;;13.20;99.90;;;;;;5013142;28;20281;-57
2022/09/27 07:42:19;;;;;;;1.23;0.63;;;13.30;99.90;;;;;;5013820;28;20199;-55
2022/09/27 07:44:46;;;;;;;2.17;0.70;;;13.50;99.90;;;;;;5013719;28;20211;-56
2022/09/27 07:47:12;;;;;;;0.60;0.40;;;13.90;99.90;;;;;;5013481;28;20207;-56
2022/09/27 07:49:39;;;;;;;1.70;0.40;;;14.10;99.90;;;;;;5012848;28;20242;-57
2022/09/27 07:52:07;;;;;;;0.63;0.37;;;14.30;99.90;;;;;;5013641;28;20227;-60
2022/09/27 07:54:34;;;;;;;9.37;5.63;;;14.30;99.90;;;;;;5013577;28;20257;-61
2022/09/27 07:57:02;;;;;;;4.03;2.83;;;14.40;99.90;;;;;;5013628;28;20206;-60
2022/09/27 07:59:29;;;;;;;2.67;2.10;;;14.50;99.90;;;;;;5013060;28;20238;-62
2022/09/27 08:01:55;;;;;;;1.07;0.80;;;14.40;99.90;;;;;;5014138;28;20674;-59
2022/09/27 08:04:22;;;;;;;0.67;0.30;;;14.20;99.90;;;;;;5013626;28;20690;-60
2022/09/27 08:06:49;;;;;;;1.50;1.00;;;14.00;99.90;;;;;;5013500;28;20223;-60
2022/09/27 08:09:17;;;;;;;1.30;0.30;;;13.90;99.90;;;;;;5013675;28;20234;-59
2022/09/27 08:11:44;;;;;;;1.77;0.77;;;14.10;99.90;;;;;;5012619;28;20233;-59
2022/09/27 08:14:11;;;;;;;2.73;1.43;;;14.60;99.90;;;;;;5013240;28;20301;-60
2022/09/27 08:16:38;;;;;;;1.40;0.60;;;15.10;99.90;;;;;;5013111;28;20214;-61
2022/09/27 08:19:05;;;;;;;1.63;0.70;;;15.60;99.90;;;;;;5013205;28;20258;-61
2022/09/27 08:21:32;;;;;;;0.50;0.47;;;16.10;99.90;;;;;;5012759;28;20199;-61
2022/09/27 08:23:59;;;;;;;1.43;0.60;;;16.60;99.90;;;;;;5013157;28;20597;-61
2022/09/27 08:26:29;;;;;;;1.65;0.52;;;16.90;99.90;;;;;;5013333;28;20213;-60
2022/09/27 08:28:55;;;;;;;0.80;0.60;;;17.20;99.90;;;;;;5012997;28;20647;-60
2022/09/27 08:31:24;;;;;;;1.00;0.68;;;17.30;99.90;;;;;;5012188;28;20233;-60
2022/09/27 08:33:51;;;;;;;1.02;0.60;;;17.30;99.90;;;;;;5012952;28;20206;-59
2022/09/27 08:36:19;;;;;;;1.60;0.30;;;17.20;99.90;;;;;;5012982;28;20211;-60
2022/09/27 08:38:49;;;;;;;1.23;0.70;;;17.00;99.90;;;;;;5012766;28;20314;-61
2022/09/27 08:41:27;;;;;;;2.13;1.00;;;16.90;99.90;;;;;;5012809;28;20742;-60
2022/09/27 08:44:12;;;;;;;0.97;0.60;;;16.80;99.90;;;;;;5011212;28;20663;-60
2022/09/27 08:46:52;;;;;;;1.98;0.70;;;16.40;99.90;;;;;;4996030;28;20667;-61
2022/09/27 08:49:24;;;;;;;2.83;0.90;;;16.50;99.90;;;;;;5011385;28;20269;-61
2022/09/27 08:51:53;;;;;;;1.70;1.00;;;16.70;99.90;;;;;;5010303;28;20318;-61
2022/09/27 08:54:23;;;;;;;3.10;1.17;;;16.70;99.90;;;;;;5011190;28;20674;-60
2022/09/27 08:56:52;;;;;;;1.60;0.70;;;16.50;99.90;;;;;;5011517;28;20260;-58
2022/09/27 08:59:24;;;;;;;2.17;0.50;;;16.00;99.90;;;;;;5011447;28;20231;-63
2022/09/27 09:01:53;;;;;;;1.23;0.57;;;15.60;99.90;;;;;;5011477;28;20633;-59
2022/09/27 09:04:28;;;;;;;2.47;0.80;;;15.30;99.90;;;;;;5012366;28;20260;-59
2022/09/27 09:07:02;;;;;;;1.33;0.77;;;15.30;99.90;;;;;;5012162;28;20186;-59
2022/09/27 09:09:37;;;;;;;1.57;0.60;;;15.30;99.90;;;;;;5012157;28;20256;-59
2022/09/27 09:15:13;;;;;;;1.70;0.80;;;15.40;99.90;;;;;;5012242;28;20207;-59
2022/09/27 09:17:52;;;;;;;1.67;0.50;;;15.30;99.90;;;;;;5012432;28;20219;-60
2022/09/27 09:20:44;;;;;;;3.33;0.60;;;15.30;99.90;;;;;;5011468;28;20233;-59
2022/09/27 09:23:56;;;;;;;1.83;0.60;;;15.40;99.90;;;;;;5012198;28;20205;-59
2022/09/27 09:26:32;;;;;;;2.70;1.37;;;15.60;99.90;;;;;;4974274;28;20667;-59
2022/09/27 09:29:16;;;;;;;3.97;1.00;;;15.70;99.90;;;;;;5012146;28;20233;-58
2022/09/27 09:31:53;;;;;;;3.33;0.80;;;15.70;99.90;;;;;;5011556;28;20314;-59
2022/09/27 09:34:23;;;;;;;1.83;0.70;;;15.80;99.90;;;;;;5012294;28;20260;-58
2022/09/27 09:36:55;;;;;;;1.70;0.73;;;16.00;99.90;;;;;;5012268;28;20211;-59
2022/09/27 09:39:26;;;;;;;2.93;1.07;;;15.90;99.90;;;;;;5011924;28;20321;-58
2022/09/27 09:42:07;;;;;;;2.83;0.70;;;15.90;99.90;;;;;;5011370;28;20257;-59
2022/09/27 09:44:42;;;;;;;1.77;0.97;;;15.80;99.90;;;;;;5012020;28;20207;-58
2022/09/27 09:47:16;;;;;;;3.60;0.73;;;15.70;99.90;;;;;;5012105;28;20206;-59
2022/09/27 09:49:47;;;;;;;3.03;1.00;;;15.60;99.90;;;;;;5011333;28;20605;-58
2022/09/27 09:52:18;;;;;;;5.13;1.00;;;15.90;99.90;;;;;;5012108;28;20265;-58
2022/09/27 09:54:49;;;;;;;1.13;0.63;;;16.20;99.90;;;;;;5011927;28;20297;-59
2022/09/27 09:57:18;;;;;;;2.43;1.40;;;16.50;99.90;;;;;;5013490;28;20253;-60
2022/09/27 09:59:49;;;;;;;4.67;1.90;;;16.90;99.90;;;;;;5015221;28;20311;-59
2022/09/27 10:02:31;;;;;;;3.30;2.00;;;17.40;99.90;;;;;;5016056;28;20208;-59
2022/09/27 10:04:58;;;;;;;3.33;2.08;;;18.00;99.90;;;;;;5015919;28;20626;-59
2022/09/27 10:07:26;;;;;;;4.65;2.17;;;18.30;99.90;;;;;;5015933;28;20646;-60
2022/09/27 10:09:56;;;;;;;7.30;5.13;;;18.40;99.90;;;;;;5014616;28;20234;-60
2022/09/27 10:12:23;;;;;;;2.88;0.90;;;18.50;99.90;;;;;;5015467;28;20231;-60
2022/09/27 10:14:52;;;;;;;2.05;0.70;;;18.30;99.90;;;;;;5015560;28;20211;-59
2022/09/27 10:17:21;;;;;;;2.83;0.85;;;18.30;99.90;;;;;;5015595;28;20211;-59
2022/09/27 10:19:51;;;;;;;3.90;0.98;;;18.40;99.90;;;;;;5015365;28;20258;-59
2022/09/27 10:22:23;;;;;;;3.00;0.98;;;18.40;99.90;;;;;;5015500;28;20207;-59
2022/09/27 10:24:57;;;;;;;2.17;0.70;;;18.40;99.90;;;;;;5011642;28;20675;-63
2022/09/27 10:27:25;;;;;;;2.97;0.93;;;18.30;99.90;;;;;;5012970;28;20215;-59
2022/09/27 10:29:57;;;;;;;3.08;0.80;;;18.40;99.90;;;;;;5013812;28;20321;-56
2022/09/27 10:32:29;;;;;;;2.92;1.00;;;18.50;99.90;;;;;;5012659;28;20702;-59
2022/09/27 10:35:21;;;;;;;2.70;1.20;;;18.70;99.90;;;;;;5003009;28;20298;-58
2022/09/27 10:37:48;;;;;;;4.43;1.20;;;18.80;99.90;;;;;;5013662;28;20574;-57
2022/09/27 10:40:32;;;;;;;1.83;0.90;;;18.90;99.90;;;;;;5012889;28;20227;-56
2022/09/27 10:42:59;;;;;;;1.65;1.10;;;18.80;99.90;;;;;;5013942;28;20311;-57
2022/09/27 10:45:28;;;;;;;1.80;0.77;;;18.90;99.90;;;;;;5014040;28;20617;-57
2022/09/27 10:47:56;;;;;;;1.92;0.98;;;18.90;99.90;;;;;;5013665;28;20582;-57
2022/09/27 10:50:26;;;;;;;2.35;1.10;;;18.80;99.90;;;;;;5013205;28;20728;-58
2022/09/27 10:53:12;;;;;;;4.00;1.20;;;19.00;99.90;;;;;;5013094;28;20285;-59
2022/09/27 10:55:40;;;;;;;2.25;0.80;;;19.00;99.90;;;;;;5013795;28;20210;-59
2022/09/27 10:58:15;;;;;;;2.88;1.02;;;18.80;99.90;;;;;;5013243;28;20222;-58
2022/09/27 11:00:41;;;;;;;4.95;1.00;;;18.50;99.90;;;;;;5013342;28;20234;-61
2022/09/27 11:03:15;;;;;;;4.55;1.23;;;18.20;99.90;;;;;;5013433;28;20214;-61
2022/09/27 11:05:44;;;;;;;2.80;1.25;;;18.00;99.90;;;;;;5013472;28;20219;-60
2022/09/27 11:08:29;;;;;;;2.65;1.25;;;17.90;99.90;;;;;;5011977;28;20753;-62
2022/09/27 11:11:07;;;;;;;6.30;1.70;;;17.70;99.90;;;;;;5012778;28;20269;-65
2022/09/27 11:13:35;;;;;;;2.83;1.25;;;17.40;99.90;;;;;;5012885;28;20234;-63
2022/09/27 11:16:21;;;;;;;2.45;1.20;;;17.20;99.90;;;;;;5012379;28;20371;-62
2022/09/27 11:18:55;;;;;;;2.20;0.90;;;17.20;99.90;;;;;;5013154;28;20231;-60
2022/09/27 11:21:33;;;;;;;2.23;1.10;;;17.10;99.90;;;;;;5012785;28;20210;-59
2022/09/27 11:24:12;;;;;;;4.00;1.10;;;17.20;99.90;;;;;;5012934;28;20222;-58
2022/09/27 11:26:50;;;;;;;3.00;1.60;;;17.30;99.90;;;;;;5012598;28;20213;-59
2022/09/27 11:29:28;;;;;;;2.17;1.07;;;17.30;99.90;;;;;;5012947;28;20269;-58
2022/09/27 11:32:11;;;;;;;1.80;1.30;;;17.30;99.90;;;;;;5012209;28;20203;-60
2022/09/27 11:34:59;;;;;;;2.63;1.20;;;17.30;99.90;;;;;;5012412;28;20217;-60
2022/09/27 11:37:37;;;;;;;3.33;1.30;;;17.20;99.90;;;;;;5012633;28;20211;-61
2022/09/27 11:40:18;;;;;;;3.87;1.40;;;17.00;99.90;;;;;;5012057;28;20765;-61
2022/09/27 11:43:09;;;;;;;2.90;1.05;;;16.90;99.90;;;;;;5012542;28;20662;-59
2022/09/27 11:45:47;;;;;;;2.28;1.38;;;16.70;99.90;;;;;;5012654;28;20241;-59
2022/09/27 11:48:27;;;;;;;2.87;1.40;;;16.60;99.90;;;;;;5012377;28;20213;-60
2022/09/27 11:51:23;;;;;;;2.47;1.10;;;16.40;99.90;;;;;;5012088;28;20221;-59
2022/09/27 11:54:14;;;;;;;3.57;1.13;;;16.40;99.90;;;;;;5005756;28;20289;-59
2022/09/27 11:56:47;;;;;;;2.13;1.27;;;16.30;99.90;;;;;;5012348;28;20258;-59
2022/09/27 11:59:46;;;;;;;5.83;1.70;;;15.90;99.90;;;;;;5011276;28;20230;-67
2022/09/27 12:02:37;;;;;;;3.63;1.50;;;15.50;99.90;;;;;;5004863;28;20338;-59
2022/09/27 12:05:20;;;;;;;2.42;1.35;;;15.20;99.90;;;;;;5001837;28;20454;-59
2022/09/27 12:07:57;;;;;;;2.77;1.30;;;14.80;99.90;;;;;;5010714;28;20492;-62
2022/09/27 12:10:25;;;;;;;5.30;0.90;;;14.30;99.90;;;;;;5011021;28;20342;-57
2022/09/27 12:12:56;;;;;;;3.17;1.00;;;13.70;99.90;;;;;;5012146;28;20226;-58
2022/09/27 12:15:28;;;;;;;1.13;0.50;;;13.40;99.90;;;;;;5012386;28;20262;-61
2022/09/27 12:18:06;;;;;;;1.80;0.50;;;13.10;99.90;;;;;;5011554;28;20650;-60
2022/09/27 12:20:35;;;;;;;0.50;0.30;;;12.80;99.90;;;;;;5010836;28;20644;-57
2022/09/27 12:23:07;;;;;;;0.70;0.50;;;12.60;99.90;;;;;;5012212;28;20305;-58
2022/09/27 12:25:38;;;;;;;1.23;0.53;;;12.40;99.90;;;;;;5011879;28;20203;-58
2022/09/27 12:28:12;;;;;;;0.43;0.33;;;12.40;99.90;;;;;;5012251;28;20211;-59
2022/09/27 12:30:42;;;;;;;0.93;0.57;;;12.60;99.90;;;;;;5010886;28;20235;-58
2022/09/27 12:33:18;;;;;;;1.10;0.50;;;12.60;99.90;;;;;;5011829;28;20238;-60
2022/09/27 12:35:51;;;;;;;1.07;0.70;;;12.70;99.90;;;;;;5011694;28;20265;-59
2022/09/27 12:38:23;;;;;;;1.67;0.50;;;12.80;99.90;;;;;;5011535;28;20207;-61
2022/09/27 12:40:55;;;;;;;1.13;0.70;;;13.00;99.90;;;;;;5011198;28;20211;-57
2022/09/27 12:43:23;;;;;;;4.07;0.80;;;13.10;99.90;;;;;;5011506;28;20211;-62
2022/09/27 12:45:58;;;;;;;1.23;0.53;;;13.50;99.90;;;;;;5011788;28;20298;-62
2022/09/27 12:48:31;;;;;;;1.57;0.83;;;13.70;99.90;;;;;;5011673;28;20206;-57
2022/09/27 12:51:06;;;;;;;1.30;0.70;;;13.90;99.90;;;;;;5011125;28;20207;-59
2022/09/27 12:53:48;;;;;;;2.27;1.03;;;14.10;99.90;;;;;;5011552;28;20593;-58
2022/09/27 12:56:32;;;;;;;1.20;0.50;;;14.20;99.90;;;;;;5012444;28;20210;-56
2022/09/27 12:59:18;;;;;;;0.47;0.47;;;14.40;99.90;;;;;;5012485;28;20252;-58
2022/09/27 13:02:09;;;;;;;2.70;1.60;;;14.60;99.90;;;;;;5012237;28;20706;-58
2022/09/27 13:04:55;;;;;;;2.30;0.60;;;14.50;99.90;;;;;;5011649;28;20183;-59
2022/09/27 13:07:34;;;;;;;0.60;0.43;;;14.40;99.90;;;;;;5011173;28;20306;-58
2022/09/27 13:10:28;;;;;;;0.60;0.33;;;14.30;99.90;;;;;;5011604;28;20234;-60
2022/09/27 13:12:59;;;;;;;2.23;1.40;;;14.20;99.90;;;;;;5011519;28;20322;-58
2022/09/27 13:15:29;;;;;;;2.20;0.90;;;14.20;99.90;;;;;;5010913;28;20203;-58
2022/09/27 13:17:58;;;;;;;1.20;0.60;;;14.40;99.90;;;;;;5010818;28;20215;-58